CZ-0032 weather

Hospital Heliport
Rakovník, Central Bohemian Region, Czech Republic

Public forecast

Using degrees Celsius for public forecast. Weather courtesy of forecast.io.

Closest aviation weather report (METAR) to Hospital Heliport

Closest report is Václav Havel Airport Prague, 20.9 nm (38.6 km) E. Retrieved 2019/11/21 15:30 UTC (0 seconds ago):

LKPR 211530Z 09007KT 5000 -RA BR SCT004 BKN007 OVC014 09/08 Q1008 NOSIG

Closest aviation forecast (TAF) to Hospital Heliport

Closest forecast is Václav Havel Airport Prague, 20.9 nm (38.6 km) E. Retrieved 2019/11/21 12:21 UTC (3 hours ago):

TAF LKPR 211100Z 2112/2218 07006KT 3000 BR SCT005 OVC016 TEMPO 2112/2118 1200 RADZ BR BKN003 OVC010 PROB30 TEMPO 2112/2118 BKN001 BECMG 2115/2118 20008KT BECMG 2123/2201 VRB02KT BECMG 2201/2203 1200 BR BKN003 TEMPO 2203/2208 0600 FG BKN001 BECMG 2208/2211 14004KT 5000 BR SCT005 BKN020